createdAt,value
2019-04-29T00:02:28.800Z,101760.23
2019-04-29T00:04:59.311Z,101762.24
2019-04-29T00:07:29.914Z,101756.01
2019-04-29T00:10:00.491Z,101757.72
2019-04-29T00:12:31.744Z,101762.87
2019-04-29T00:15:13.283Z,101766.45
2019-04-29T00:17:50.323Z,101765.98
2019-04-29T00:20:28.976Z,101759.78
2019-04-29T00:22:59.501Z,101754.06
2019-04-29T00:25:30.072Z,101753.95
2019-04-29T00:28:00.592Z,101747.00
2019-04-29T00:30:31.201Z,101748.11
2019-04-29T00:33:01.753Z,101747.17
2019-04-29T00:35:32.145Z,101741.54
2019-04-29T00:38:20.555Z,101743.59
2019-04-29T00:41:19.282Z,101743.11
2019-04-29T00:43:53.673Z,101750.42
2019-04-29T00:46:24.217Z,101752.43
2019-04-29T00:48:54.700Z,101742.48
2019-04-29T00:51:25.204Z,101750.29
2019-04-29T00:54:01.248Z,101743.05
2019-04-29T00:56:31.753Z,101744.28
2019-04-29T00:59:02.223Z,101739.48
2019-04-29T01:01:32.833Z,101731.13
2019-04-29T01:04:03.334Z,101740.05
2019-04-29T01:06:33.831Z,101740.14
2019-04-29T01:09:07.956Z,101731.70
2019-04-29T01:11:38.426Z,101736.48
2019-04-29T01:14:08.903Z,101742.28
2019-04-29T01:16:39.388Z,101742.59
2019-04-29T01:19:09.891Z,101740.17
2019-04-29T01:21:40.371Z,101733.84
2019-04-29T01:24:10.887Z,101727.30
2019-04-29T01:26:59.221Z,101730.67
2019-04-29T01:29:30.441Z,101735.59
2019-04-29T01:32:00.925Z,101735.59
2019-04-29T01:34:36.864Z,101735.19
2019-04-29T01:37:07.386Z,101739.22
2019-04-29T01:39:43.572Z,101729.84
2019-04-29T01:42:36.456Z,101728.32
2019-04-29T01:45:07.013Z,101730.87
2019-04-29T01:47:37.478Z,101728.24
2019-04-29T01:50:08.083Z,101730.38
2019-04-29T01:52:38.667Z,101725.95
2019-04-29T01:55:09.147Z,101725.75
2019-04-29T01:57:39.600Z,101731.62
2019-04-29T02:00:12.433Z,101731.44
2019-04-29T02:02:43.068Z,101730.12
2019-04-29T02:05:13.541Z,101731.03
2019-04-29T02:07:44.017Z,101723.64
2019-04-29T02:10:26.647Z,101718.34
2019-04-29T02:12:57.154Z,101718.27
2019-04-29T02:15:27.608Z,101712.80
2019-04-29T02:17:58.067Z,101711.51
2019-04-29T02:20:28.581Z,101706.43
2019-04-29T02:23:17.976Z,101709.60
2019-04-29T02:25:48.971Z,101712.63
2019-04-29T02:28:19.428Z,101707.94
2019-04-29T02:30:51.207Z,101711.03
2019-04-29T02:33:21.681Z,101708.66
2019-04-29T02:35:52.148Z,101701.70
2019-04-29T02:38:41.089Z,101698.82
2019-04-29T02:41:39.772Z,101700.59
2019-04-29T02:44:11.885Z,101700.59
2019-04-29T02:46:42.371Z,101700.48
2019-04-29T02:49:12.862Z,101699.45
2019-04-29T02:51:47.056Z,101698.90
2019-04-29T02:54:17.544Z,101696.27
2019-04-29T02:56:52.423Z,101692.25
2019-04-29T02:59:28.828Z,101695.06
2019-04-29T03:02:07.975Z,101695.15
2019-04-29T03:04:57.365Z,101706.34
2019-04-29T03:07:27.865Z,101705.48
2019-04-29T03:09:58.348Z,101701.19
2019-04-29T03:12:28.820Z,101709.37
2019-04-29T03:15:00.124Z,101705.05
2019-04-29T03:17:31.308Z,101701.95
2019-04-29T03:20:13.104Z,101700.42
2019-04-29T03:22:44.349Z,101698.53
2019-04-29T03:25:14.920Z,101707.56
2019-04-29T03:27:45.434Z,101713.03
2019-04-29T03:30:16.109Z,101713.03
2019-04-29T03:32:46.622Z,101714.33
2019-04-29T03:35:17.130Z,101705.41
2019-04-29T03:37:47.609Z,101703.19
2019-04-29T03:40:19.343Z,101699.77
2019-04-29T03:42:49.970Z,101699.03
2019-04-29T03:45:20.499Z,101700.89
2019-04-29T03:47:51.028Z,101701.55
2019-04-29T03:50:21.553Z,101697.97
2019-04-29T03:52:52.035Z,101706.34
2019-04-29T03:55:38.276Z,101702.42
2019-04-29T03:57:54.728Z,101700.34
2019-04-29T04:00:25.206Z,101703.53
2019-04-29T04:03:04.368Z,101705.33
2019-04-29T04:05:46.008Z,101701.73
2019-04-29T04:08:32.221Z,101715.10
2019-04-29T04:11:02.679Z,101701.18
2019-04-29T04:13:33.132Z,101709.06
2019-04-29T04:16:04.640Z,101715.92
2019-04-29T04:18:35.389Z,101711.89
2019-04-29T04:21:05.847Z,101720.16
2019-04-29T04:23:36.263Z,101721.59
2019-04-29T04:26:06.720Z,101720.44
2019-04-29T04:28:37.218Z,101724.70
2019-04-29T04:31:07.698Z,101723.30
2019-04-29T04:33:38.234Z,101724.53
2019-04-29T04:36:08.710Z,101727.16
2019-04-29T04:38:39.199Z,101719.53
2019-04-29T04:41:11.541Z,101721.34
2019-04-29T04:43:41.933Z,101716.62
2019-04-29T04:46:12.508Z,101720.28
2019-04-29T04:48:42.966Z,101713.50
2019-04-29T04:51:13.421Z,101715.47
2019-04-29T04:53:43.931Z,101714.76
2019-04-29T04:56:14.369Z,101716.16
2019-04-29T04:58:44.860Z,101712.09
2019-04-29T05:01:15.347Z,101720.95
2019-04-29T05:03:45.802Z,101721.59
2019-04-29T05:06:16.275Z,101717.17
2019-04-29T05:08:46.777Z,101715.87
2019-04-29T05:11:17.251Z,101715.10
2019-04-29T05:13:47.783Z,101715.37
2019-04-29T05:16:18.173Z,101717.27
2019-04-29T05:18:48.639Z,101719.05
2019-04-29T05:21:19.018Z,101722.42
2019-04-29T05:23:49.578Z,101726.38
2019-04-29T05:26:20.068Z,101728.06
2019-04-29T05:28:50.513Z,101728.16
2019-04-29T05:31:21.008Z,101716.98
2019-04-29T05:33:51.500Z,101715.47
2019-04-29T05:36:34.096Z,101717.53
2019-04-29T05:39:21.803Z,101707.27
2019-04-29T05:41:52.274Z,101707.94
2019-04-29T05:44:37.394Z,101706.22
2019-04-29T05:47:12.441Z,101717.89
2019-04-29T05:49:48.068Z,101711.31
2019-04-29T05:52:49.732Z,101717.41
2019-04-29T05:55:30.387Z,101710.27
2019-04-29T05:58:13.357Z,101708.09
2019-04-29T06:00:51.335Z,101712.04
2019-04-29T06:03:21.821Z,101708.82
2019-04-29T06:05:52.323Z,101710.50
2019-04-29T06:08:22.794Z,101704.19
2019-04-29T06:10:53.313Z,101707.96
2019-04-29T06:13:23.838Z,101704.55
2019-04-29T06:15:54.248Z,101704.91
2019-04-29T06:18:24.742Z,101711.13
2019-04-29T06:21:08.375Z,101711.95
2019-04-29T06:23:27.357Z,101715.90
2019-04-29T06:25:57.885Z,101715.23
2019-04-29T06:28:28.388Z,101720.23
2019-04-29T06:30:58.974Z,101723.59
2019-04-29T06:33:30.976Z,101727.94
2019-04-29T06:36:01.597Z,101721.72
2019-04-29T06:38:38.057Z,101726.58
2019-04-29T06:41:09.743Z,101718.70
2019-04-29T06:43:40.716Z,101716.49
2019-04-29T06:46:11.282Z,101724.12
2019-04-29T06:48:41.686Z,101721.29
2019-04-29T06:51:12.232Z,101720.70
2019-04-29T06:53:42.715Z,101721.84
2019-04-29T06:56:13.259Z,101729.41
2019-04-29T06:58:43.802Z,101735.27
2019-04-29T07:01:14.304Z,101738.54
2019-04-29T07:03:44.876Z,101743.91
2019-04-29T07:06:15.320Z,101746.13
2019-04-29T07:08:45.772Z,101755.17
2019-04-29T07:11:16.355Z,101764.99
2019-04-29T07:13:46.844Z,101759.21
2019-04-29T07:16:17.422Z,101751.72
2019-04-29T07:18:53.537Z,101748.76
2019-04-29T07:21:21.772Z,101744.26
2019-04-29T07:23:52.250Z,101735.20
2019-04-29T07:26:22.759Z,101727.70
2019-04-29T07:28:53.773Z,101718.80
2019-04-29T07:31:28.425Z,101707.70
2019-04-29T07:33:58.993Z,101710.20
2019-04-29T07:36:29.589Z,101717.65
2019-04-29T07:39:00.071Z,101722.02
2019-04-29T07:41:30.658Z,101738.97
2019-04-29T07:44:01.171Z,101742.69
2019-04-29T07:46:55.727Z,101741.80
2019-04-29T07:49:12.713Z,101734.23
2019-04-29T07:51:41.438Z,101726.05
2019-04-29T07:54:15.979Z,101732.23
2019-04-29T07:56:44.160Z,101737.83
2019-04-29T07:59:14.734Z,101756.44
2019-04-29T08:01:45.214Z,101745.84
2019-04-29T08:04:15.744Z,101749.52
2019-04-29T08:06:47.078Z,101743.66
2019-04-29T08:09:17.667Z,101751.66
2019-04-29T08:11:49.178Z,101745.03
2019-04-29T08:14:22.135Z,101741.44
2019-04-29T08:16:52.622Z,101740.34
2019-04-29T08:19:24.642Z,101735.20
2019-04-29T08:21:55.359Z,101738.03
2019-04-29T08:24:25.864Z,101729.52
2019-04-29T08:26:56.368Z,101732.42
2019-04-29T08:29:30.945Z,101731.98
2019-04-29T08:32:02.212Z,101746.11
2019-04-29T08:34:31.422Z,101735.28
2019-04-29T08:37:01.934Z,101742.16
2019-04-29T08:39:32.426Z,101743.23
2019-04-29T08:42:09.016Z,101740.42
2019-04-29T08:45:05.612Z,101744.55
2019-04-29T08:47:38.610Z,101745.59
2019-04-29T08:50:09.280Z,101754.02
2019-04-29T08:52:39.789Z,101749.23
2019-04-29T08:55:10.934Z,101752.09
2019-04-29T08:57:41.377Z,101756.32
2019-04-29T09:00:14.070Z,101751.75
2019-04-29T09:02:46.923Z,101756.52
2019-04-29T09:05:16.920Z,101754.68
2019-04-29T09:07:47.414Z,101750.73
2019-04-29T09:10:18.550Z,101758.45
2019-04-29T09:12:49.036Z,101750.48
2019-04-29T09:15:20.077Z,101757.74
2019-04-29T09:17:50.662Z,101747.05
2019-04-29T09:20:21.318Z,101757.43
2019-04-29T09:22:56.518Z,101754.06
2019-04-29T09:26:02.451Z,101761.89
2019-04-29T09:28:27.966Z,101753.17
2019-04-29T09:30:56.513Z,101758.13
2019-04-29T09:33:27.114Z,101761.43
2019-04-29T09:35:57.652Z,101764.34
2019-04-29T09:38:28.137Z,101757.11
2019-04-29T09:41:15.741Z,101756.41
2019-04-29T09:44:10.955Z,101760.86
2019-04-29T09:46:41.538Z,101756.41
2019-04-29T09:49:12.012Z,101762.34
2019-04-29T09:51:42.447Z,101765.58
2019-04-29T09:54:14.602Z,101765.52
2019-04-29T09:56:45.184Z,101760.31
2019-04-29T09:59:23.964Z,101763.86
2019-04-29T10:02:26.378Z,101762.91
2019-04-29T10:05:13.822Z,101754.77
2019-04-29T10:07:44.365Z,101754.28
2019-04-29T10:10:15.042Z,101753.09
2019-04-29T10:12:45.586Z,101746.89
2019-04-29T10:15:17.829Z,101746.69
2019-04-29T10:17:56.220Z,101751.79
2019-04-29T10:20:37.584Z,101746.77
2019-04-29T10:23:08.226Z,101739.36
2019-04-29T10:25:38.813Z,101738.73
2019-04-29T10:28:09.977Z,101740.31
2019-04-29T10:30:40.747Z,101738.99
2019-04-29T10:33:12.941Z,101736.47
2019-04-29T10:35:45.128Z,101730.83
2019-04-29T10:38:15.892Z,101733.54
2019-04-29T10:41:01.007Z,101730.34
2019-04-29T10:43:53.824Z,101730.84
2019-04-29T10:46:48.216Z,101725.95
2019-04-29T10:49:25.359Z,101725.86
2019-04-29T10:51:58.113Z,101719.99
2019-04-29T10:54:29.910Z,101721.61
2019-04-29T10:57:00.411Z,101735.36
2019-04-29T10:59:36.149Z,101725.95
2019-04-29T11:02:30.746Z,101722.44
2019-04-29T11:05:19.854Z,101722.20
2019-04-29T11:07:51.617Z,101722.94
2019-04-29T11:10:26.534Z,101714.63
2019-04-29T11:12:57.485Z,101714.24
2019-04-29T11:15:38.039Z,101711.87
2019-04-29T11:18:08.974Z,101706.44
2019-04-29T11:20:39.485Z,101707.34
2019-04-29T11:23:25.970Z,101701.80
2019-04-29T11:26:27.578Z,101708.91
2019-04-29T11:28:59.571Z,101699.80
2019-04-29T11:31:30.149Z,101692.19
2019-04-29T11:34:15.745Z,101697.95
2019-04-29T11:36:44.450Z,101688.41
2019-04-29T11:39:17.045Z,101683.19
2019-04-29T11:41:50.010Z,101684.67
2019-04-29T11:44:21.999Z,101685.92
2019-04-29T11:46:52.222Z,101684.28
2019-04-29T11:49:29.587Z,101678.46
2019-04-29T11:52:09.308Z,101677.09
2019-04-29T11:54:32.356Z,101674.73
2019-04-29T11:57:02.932Z,101672.70
2019-04-29T11:59:41.161Z,101674.22
2019-04-29T12:02:45.447Z,101687.64
2019-04-29T12:05:24.803Z,101676.34
2019-04-29T12:07:55.415Z,101667.01
2019-04-29T12:10:25.950Z,101665.42
2019-04-29T12:12:58.149Z,101668.20
2019-04-29T12:15:54.170Z,101660.34
2019-04-29T12:18:33.983Z,101665.63
2019-04-29T12:21:27.861Z,101660.23
2019-04-29T12:24:00.186Z,101671.54
2019-04-29T12:26:35.514Z,101654.81
2019-04-29T12:29:03.167Z,101666.45
2019-04-29T12:31:52.612Z,101672.45
2019-04-29T12:34:40.774Z,101670.55
2019-04-29T12:37:20.520Z,101658.58
2019-04-29T12:40:14.450Z,101656.18
2019-04-29T12:43:11.180Z,101666.09
2019-04-29T12:45:46.474Z,101663.41
2019-04-29T12:48:24.581Z,101668.86
2019-04-29T12:50:51.103Z,101662.05
2019-04-29T12:53:21.711Z,101672.29
2019-04-29T12:55:54.009Z,101655.52
2019-04-29T12:58:25.854Z,101660.48
2019-04-29T13:01:01.128Z,101658.23
2019-04-29T13:03:55.618Z,101646.63
2019-04-29T13:06:39.598Z,101647.30
2019-04-29T13:09:17.944Z,101646.22
2019-04-29T13:11:49.607Z,101646.12
2019-04-29T13:14:22.544Z,101639.59
2019-04-29T13:17:14.693Z,101640.75
2019-04-29T13:20:00.983Z,101634.08
2019-04-29T13:22:22.024Z,101631.98
2019-04-29T13:24:52.541Z,101637.83
2019-04-29T13:27:25.456Z,101635.99
2019-04-29T13:29:55.335Z,101636.92
2019-04-29T13:32:29.856Z,101643.16
2019-04-29T13:35:05.233Z,101628.64
2019-04-29T13:37:33.092Z,101643.10
2019-04-29T13:40:03.978Z,101630.64
2019-04-29T13:42:34.536Z,101625.90
2019-04-29T13:45:12.565Z,101634.81
2019-04-29T13:47:57.369Z,101634.09
2019-04-29T13:50:39.843Z,101630.09
2019-04-29T13:53:07.278Z,101619.58
2019-04-29T13:55:49.394Z,101622.97
2019-04-29T13:58:12.018Z,101628.83
2019-04-29T14:01:04.545Z,101633.94
2019-04-29T14:03:42.152Z,101627.03
2019-04-29T14:06:14.460Z,101618.54
2019-04-29T14:08:43.965Z,101606.27
2019-04-29T14:11:14.653Z,101615.45
2019-04-29T14:13:48.242Z,101614.41
2019-04-29T14:16:19.390Z,101612.56
2019-04-29T14:18:50.382Z,101617.09
2019-04-29T14:21:20.910Z,101618.28
2019-04-29T14:23:51.513Z,101615.46
2019-04-29T14:26:22.020Z,101611.58
2019-04-29T14:28:52.508Z,101606.66
2019-04-29T14:31:24.569Z,101605.14
2019-04-29T14:34:01.364Z,101603.08
2019-04-29T14:36:31.864Z,101604.79
2019-04-29T14:39:02.370Z,101606.89
2019-04-29T14:41:34.701Z,101606.00
2019-04-29T14:44:42.547Z,101611.70
2019-04-29T14:47:22.762Z,101605.09
2019-04-29T14:49:56.504Z,101606.77
2019-04-29T14:52:27.016Z,101607.73
2019-04-29T14:54:57.600Z,101611.41
2019-04-29T14:57:28.174Z,101607.07
2019-04-29T14:59:59.309Z,101607.55
2019-04-29T15:02:30.028Z,101606.08
2019-04-29T15:05:00.657Z,101613.31
2019-04-29T15:07:37.184Z,101604.32
2019-04-29T15:10:09.019Z,101613.51
2019-04-29T15:13:06.770Z,101617.84
2019-04-29T15:16:03.366Z,101616.95
2019-04-29T15:18:47.778Z,101613.52
2019-04-29T15:21:31.437Z,101610.97
2019-04-29T15:23:50.952Z,101621.54
2019-04-29T15:26:21.476Z,101615.96
2019-04-29T15:28:52.079Z,101619.80
2019-04-29T15:31:26.136Z,101622.43
2019-04-29T15:33:56.725Z,101621.87
2019-04-29T15:36:30.728Z,101621.98
2019-04-29T15:39:09.397Z,101618.05
2019-04-29T15:41:33.180Z,101626.63
2019-04-29T15:44:07.791Z,101628.44
2019-04-29T15:46:46.134Z,101622.28
2019-04-29T15:49:08.864Z,101635.95
2019-04-29T15:51:39.401Z,101637.36
2019-04-29T15:54:14.341Z,101635.91
2019-04-29T15:56:42.157Z,101634.58
2019-04-29T15:59:12.734Z,101638.42
2019-04-29T16:01:43.560Z,101639.72
2019-04-29T16:04:20.954Z,101645.41
2019-04-29T16:07:18.919Z,101639.55
2019-04-29T16:10:07.375Z,101638.77
2019-04-29T16:12:45.385Z,101644.88
2019-04-29T16:15:16.599Z,101639.86
2019-04-29T16:17:47.125Z,101645.84
2019-04-29T16:20:17.644Z,101644.52
2019-04-29T16:22:48.153Z,101650.20
2019-04-29T16:25:18.703Z,101648.88
2019-04-29T16:27:53.373Z,101647.26
2019-04-29T16:30:25.920Z,101650.95
2019-04-29T16:32:53.925Z,101654.71
2019-04-29T16:35:27.108Z,101652.66
2019-04-29T16:37:56.713Z,101655.48
2019-04-29T16:40:33.978Z,101650.72
2019-04-29T16:43:07.236Z,101659.31
2019-04-29T16:45:55.588Z,101655.45
2019-04-29T16:48:26.237Z,101654.55
2019-04-29T16:50:56.725Z,101665.56
2019-04-29T16:53:27.236Z,101663.23
2019-04-29T16:55:57.777Z,101663.51
2019-04-29T16:58:28.360Z,101664.79
2019-04-29T17:01:06.931Z,101662.61
2019-04-29T17:03:37.142Z,101668.77
2019-04-29T17:06:07.681Z,101668.84
2019-04-29T17:09:03.578Z,101669.00
2019-04-29T17:11:31.666Z,101665.72
2019-04-29T17:14:03.375Z,101666.79
2019-04-29T17:16:34.592Z,101667.46
2019-04-29T17:19:05.248Z,101673.63
2019-04-29T17:21:35.893Z,101676.11
2019-04-29T17:24:06.692Z,101668.40
2019-04-29T17:26:44.582Z,101672.73
2019-04-29T17:29:49.489Z,101678.78
2019-04-29T17:32:56.553Z,101675.84
2019-04-29T17:35:29.718Z,101677.03
2019-04-29T17:38:00.261Z,101672.86
2019-04-29T17:40:31.364Z,101677.38
2019-04-29T17:43:21.640Z,101678.66
2019-04-29T17:46:03.095Z,101677.51
2019-04-29T17:48:44.009Z,101680.98
2019-04-29T17:51:14.680Z,101674.36
2019-04-29T17:53:48.208Z,101677.37
2019-04-29T17:56:40.339Z,101683.12
2019-04-29T17:59:30.722Z,101685.19
2019-04-29T18:02:26.492Z,101688.23
2019-04-29T18:05:16.745Z,101688.20
2019-04-29T18:08:00.100Z,101690.98
2019-04-29T18:10:34.820Z,101686.73
2019-04-29T18:13:06.848Z,101692.79
2019-04-29T18:15:57.627Z,101691.27
2019-04-29T18:18:18.896Z,101700.70
2019-04-29T18:21:11.431Z,101702.02
2019-04-29T18:24:05.939Z,101697.48
2019-04-29T18:26:58.959Z,101703.84
2019-04-29T18:29:29.569Z,101704.66
2019-04-29T18:32:00.497Z,101708.53
2019-04-29T18:34:33.677Z,101706.28
2019-04-29T18:37:06.516Z,101705.44
2019-04-29T18:39:42.801Z,101701.23
2019-04-29T18:42:13.341Z,101708.75
2019-04-29T18:44:55.098Z,101715.15
2019-04-29T18:47:22.679Z,101716.27
2019-04-29T18:49:48.378Z,101714.74
2019-04-29T18:52:25.957Z,101715.83
2019-04-29T18:54:51.261Z,101720.30
2019-04-29T18:57:30.080Z,101717.03
2019-04-29T18:59:55.024Z,101723.89
2019-04-29T19:02:27.447Z,101721.71
2019-04-29T19:05:09.148Z,101723.75
2019-04-29T19:07:39.840Z,101724.94
2019-04-29T19:10:14.316Z,101722.66
2019-04-29T19:12:44.588Z,101722.86
2019-04-29T19:15:17.889Z,101721.78
2019-04-29T19:17:58.834Z,101723.36
2019-04-29T19:20:20.282Z,101730.63
2019-04-29T19:22:55.811Z,101728.23
2019-04-29T19:25:23.013Z,101730.24
2019-04-29T19:27:53.537Z,101730.91
2019-04-29T19:30:29.078Z,101729.77
2019-04-29T19:33:00.380Z,101728.14
2019-04-29T19:35:33.718Z,101731.69
2019-04-29T19:38:01.699Z,101741.78
2019-04-29T19:40:40.496Z,101735.99
2019-04-29T19:43:06.079Z,101730.65
2019-04-29T19:45:37.415Z,101725.39
2019-04-29T19:48:08.038Z,101731.92
2019-04-29T19:50:39.038Z,101734.58
2019-04-29T19:53:09.509Z,101736.93
2019-04-29T19:55:42.103Z,101741.02
2019-04-29T19:58:13.329Z,101739.79
2019-04-29T20:00:46.661Z,101742.07
2019-04-29T20:03:23.446Z,101742.67
2019-04-29T20:05:53.145Z,101747.37
2019-04-29T20:08:43.225Z,101747.54
2019-04-29T20:10:58.237Z,101751.00
2019-04-29T20:13:31.896Z,101757.43
2019-04-29T20:16:23.152Z,101756.80
2019-04-29T20:19:18.060Z,101755.65
2019-04-29T20:21:47.360Z,101750.20
2019-04-29T20:24:22.914Z,101750.56
2019-04-29T20:26:50.340Z,101749.86
2019-04-29T20:29:20.973Z,101747.84
2019-04-29T20:31:53.888Z,101748.44
2019-04-29T20:34:26.093Z,101748.23
2019-04-29T20:36:56.153Z,101743.69
2019-04-29T20:39:26.661Z,101744.64
2019-04-29T20:42:01.026Z,101751.98
2019-04-29T20:44:29.425Z,101746.77
2019-04-29T20:47:17.044Z,101750.08
2019-04-29T20:49:36.137Z,101744.91
2019-04-29T20:52:20.555Z,101750.27
2019-04-29T20:54:53.223Z,101751.41
2019-04-29T20:57:22.141Z,101745.63
2019-04-29T20:59:52.182Z,101747.67
2019-04-29T21:02:31.279Z,101750.34
2019-04-29T21:04:57.792Z,101751.38
2019-04-29T21:07:27.339Z,101746.11
2019-04-29T21:09:59.901Z,101750.95
2019-04-29T21:12:41.796Z,101752.35
2019-04-29T21:15:18.487Z,101746.25
2019-04-29T21:17:49.031Z,101745.78
2019-04-29T21:20:19.512Z,101752.72
2019-04-29T21:22:52.449Z,101749.12
2019-04-29T21:25:24.748Z,101748.36
2019-04-29T21:27:58.229Z,101744.89
2019-04-29T21:30:34.980Z,101745.19
2019-04-29T21:32:58.878Z,101748.28
2019-04-29T21:35:45.527Z,101746.66
2019-04-29T21:38:35.237Z,101752.09
2019-04-29T21:41:09.984Z,101747.03
2019-04-29T21:43:42.215Z,101742.43
2019-04-29T21:46:12.711Z,101749.43
2019-04-29T21:48:43.222Z,101755.44
2019-04-29T21:51:15.696Z,101750.58
2019-04-29T21:53:46.007Z,101755.14
2019-04-29T21:56:16.562Z,101760.48
2019-04-29T21:58:47.024Z,101761.34
2019-04-29T22:01:17.531Z,101760.69
2019-04-29T22:03:48.050Z,101763.11
2019-04-29T22:06:18.606Z,101756.63
2019-04-29T22:08:49.111Z,101762.37
2019-04-29T22:11:19.593Z,101763.98
2019-04-29T22:13:50.044Z,101763.65
2019-04-29T22:16:20.880Z,101768.25
2019-04-29T22:18:52.154Z,101775.11
2019-04-29T22:21:23.593Z,101770.59
2019-04-29T22:23:55.251Z,101779.80
2019-04-29T22:26:26.871Z,101774.03
2019-04-29T22:29:01.608Z,101776.61
2019-04-29T22:31:34.008Z,101776.16
2019-04-29T22:34:02.242Z,101771.64
2019-04-29T22:36:32.687Z,101776.89
2019-04-29T22:39:03.269Z,101779.09
2019-04-29T22:41:52.733Z,101774.94
2019-04-29T22:44:23.192Z,101773.98
2019-04-29T22:46:55.178Z,101770.49
2019-04-29T22:49:29.125Z,101770.70
2019-04-29T22:51:58.277Z,101774.19
2019-04-29T22:54:28.749Z,101775.45
2019-04-29T22:56:59.249Z,101775.64
2019-04-29T22:59:29.812Z,101764.44
2019-04-29T23:02:00.363Z,101768.16
2019-04-29T23:04:30.786Z,101767.47
2019-04-29T23:07:01.208Z,101771.11
2019-04-29T23:09:31.593Z,101766.77
2019-04-29T23:12:02.054Z,101765.86
2019-04-29T23:14:32.536Z,101758.67
2019-04-29T23:17:07.782Z,101758.14
2019-04-29T23:19:35.482Z,101751.63
2019-04-29T23:22:26.324Z,101756.77
2019-04-29T23:25:25.998Z,101753.17
2019-04-29T23:27:54.109Z,101739.48
2019-04-29T23:30:27.877Z,101737.17
2019-04-29T23:32:58.586Z,101744.73
2019-04-29T23:35:29.050Z,101742.22
2019-04-29T23:38:04.170Z,101739.39
2019-04-29T23:40:31.768Z,101741.64
2019-04-29T23:43:02.259Z,101738.20
2019-04-29T23:45:32.715Z,101741.77
2019-04-29T23:48:03.208Z,101732.78
2019-04-29T23:50:35.793Z,101737.36
2019-04-29T23:53:05.966Z,101733.52
2019-04-29T23:55:36.451Z,101735.13
2019-04-29T23:58:37.211Z,101736.86
